Time;durP1;ratioP1;P1;durP2;ratioP2;P2;SDS_P1;SDS_P2;PMS_P1;PMS_P2;Temp;Humidity;BMP_temperature;BMP_pressure;BME280_temperature;BME280_humidity;BME280_pressure;Samples;Min_cycle;Max_cycle;Signal;HPM_P1;HPM_P2
2022/07/07 00:02:14;;;;;;;3.22;2.40;;;;;;;16.05;100.00;98510.92;1747988;80;28069;-85
2022/07/07 00:04:41;;;;;;;5.45;2.40;;;;;;;15.99;100.00;98509.67;1743950;81;28085;-85
2022/07/07 00:07:07;;;;;;;2.70;2.30;;;;;;;15.95;100.00;98508.30;1745362;80;28122;-85
2022/07/07 00:09:33;;;;;;;3.80;2.12;;;;;;;15.90;100.00;98507.39;1745343;81;28081;-85
2022/07/07 00:11:59;;;;;;;4.12;2.60;;;;;;;15.80;100.00;98505.24;1744321;82;28088;-85
2022/07/07 00:14:26;;;;;;;5.15;2.27;;;;;;;15.77;100.00;98501.55;1731808;81;28103;-85
2022/07/07 00:16:53;;;;;;;9.48;2.35;;;;;;;15.74;100.00;98507.11;1730416;82;28194;-85
2022/07/07 00:19:19;;;;;;;4.65;2.33;;;;;;;15.69;100.00;98510.64;1732205;81;28528;-85
2022/07/07 00:21:45;;;;;;;3.77;1.90;;;;;;;15.70;100.00;98512.32;1733789;81;28128;-85
2022/07/07 00:24:11;;;;;;;3.95;2.30;;;;;;;15.69;100.00;98509.81;1731216;82;28096;-85
2022/07/07 00:26:38;;;;;;;4.90;2.58;;;;;;;15.72;100.00;98516.12;1731571;82;28108;-85
2022/07/07 00:29:04;;;;;;;4.87;2.72;;;;;;;15.69;100.00;98515.09;1732460;81;28101;-85
2022/07/07 00:31:30;;;;;;;5.25;2.40;;;;;;;15.66;100.00;98514.02;1731632;82;28203;-85
2022/07/07 00:33:56;;;;;;;5.62;2.55;;;;;;;15.63;100.00;98517.78;1733307;81;28091;-85
2022/07/07 00:36:23;;;;;;;3.98;2.85;;;;;;;15.57;100.00;98516.17;1731184;81;28063;-85
2022/07/07 00:38:49;;;;;;;5.35;3.55;;;;;;;15.50;100.00;98521.95;1732239;81;28130;-85
2022/07/07 00:41:15;;;;;;;5.92;2.47;;;;;;;15.46;100.00;98517.09;1731762;82;28143;-85
2022/07/07 00:43:48;;;;;;;6.78;3.22;;;;;;;15.42;100.00;98523.62;1732713;81;28078;-85
2022/07/07 00:46:14;;;;;;;6.10;3.12;;;;;;;15.39;100.00;98526.02;1732617;81;28074;-86
2022/07/07 00:48:41;;;;;;;5.62;3.22;;;;;;;15.37;100.00;98534.58;1735811;81;28074;-85
2022/07/07 00:51:10;;;;;;;4.37;3.58;;;;;;;15.34;100.00;98529.55;1697848;82;28082;-85
2022/07/07 00:53:37;;;;;;;6.85;4.25;;;;;;;15.33;100.00;98519.97;1669714;85;28095;-85
2022/07/07 00:56:04;;;;;;;6.78;3.58;;;;;;;15.33;100.00;98525.24;1667921;84;28057;-84
2022/07/07 00:58:30;;;;;;;6.67;3.22;;;;;;;15.32;100.00;98522.77;1699336;83;28057;-85
2022/07/07 01:00:57;;;;;;;5.50;3.67;;;;;;;15.22;100.00;98526.66;1735310;81;28069;-85
2022/07/07 01:03:23;;;;;;;4.20;3.33;;;;;;;15.10;100.00;98522.96;1734507;81;27986;-89
2022/07/07 01:05:50;;;;;;;3.10;2.80;;;;;;;14.99;100.00;98523.89;1729792;82;28084;-89
2022/07/07 01:08:16;;;;;;;6.33;3.12;;;;;;;14.88;100.00;98528.77;1730801;82;28068;-88
2022/07/07 01:10:43;;;;;;;4.58;2.35;;;;;;;14.78;100.00;98531.84;1733094;82;28119;-89
2022/07/07 01:13:10;;;;;;;3.65;2.35;;;;;;;14.67;100.00;98525.82;1734414;80;28132;-89
2022/07/07 01:15:36;;;;;;;5.80;2.83;;;;;;;14.59;100.00;98527.30;1755522;80;28128;-89
2022/07/07 01:18:06;;;;;;;3.30;2.20;;;;;;;14.56;100.00;98520.15;1755981;79;28018;-89
2022/07/07 01:20:34;;;;;;;5.10;3.08;;;;;;;14.63;100.00;98513.38;1756360;80;28024;-90
2022/07/07 01:23:01;;;;;;;4.53;3.35;;;;;;;14.83;100.00;98520.91;1754572;80;28158;-85
2022/07/07 01:25:27;;;;;;;5.58;3.20;;;;;;;15.00;100.00;98518.98;1756034;80;28152;-85
2022/07/07 01:27:59;;;;;;;6.75;3.20;;;;;;;15.11;100.00;98518.86;1753447;80;28046;-85
2022/07/07 01:30:26;;;;;;;5.45;3.52;;;;;;;15.18;100.00;98516.52;1758066;80;28146;-85
2022/07/07 01:32:52;;;;;;;9.23;3.85;;;;;;;15.16;100.00;98518.00;1753789;80;28079;-85
2022/07/07 01:35:18;;;;;;;8.98;3.60;;;;;;;15.20;100.00;98517.23;1757290;80;28107;-85
2022/07/07 01:37:44;;;;;;;4.95;3.05;;;;;;;15.22;100.00;98517.95;1756221;81;28077;-85
2022/07/07 01:40:10;;;;;;;6.97;4.10;;;;;;;15.24;100.00;98516.83;1755289;80;45834;-85
2022/07/07 01:42:42;;;;;;;8.83;3.95;;;;;;;15.24;100.00;98517.31;1756901;80;28119;-85
2022/07/07 01:45:10;;;;;;;;;;;;;;;15.27;100.00;98517.89;1761528;79;28107;-84
2022/07/07 01:47:36;;;;;;;9.20;4.08;;;;;;;15.27;100.00;98513.94;1756473;80;20293;-85
2022/07/07 01:50:04;;;;;;;6.40;3.60;;;;;;;15.29;100.00;98509.83;1755429;80;28176;-85
2022/07/07 01:52:33;;;;;;;4.65;3.25;;;;;;;15.30;100.00;98509.70;1756170;81;28046;-87
2022/07/07 01:54:59;;;;;;;5.20;3.72;;;;;;;15.33;100.00;98503.31;1755990;80;28142;-87
2022/07/07 01:57:25;;;;;;;6.35;3.52;;;;;;;15.35;100.00;98502.22;1757438;80;28073;-87
2022/07/07 01:59:51;;;;;;;5.45;3.62;;;;;;;15.33;100.00;98491.45;1758151;79;28040;-86
2022/07/07 02:02:18;;;;;;;6.05;3.98;;;;;;;15.26;100.00;98484.58;1752898;79;28096;-85
2022/07/07 02:04:44;;;;;;;5.60;4.17;;;;;;;15.24;100.00;98477.28;1753134;80;28080;-86
2022/07/07 02:07:10;;;;;;;5.55;4.00;;;;;;;15.27;100.00;98474.39;1754934;80;28187;-85
2022/07/07 02:09:37;;;;;;;7.08;4.08;;;;;;;15.25;100.00;98482.07;1754522;80;28096;-85
2022/07/07 02:12:03;;;;;;;7.92;3.70;;;;;;;15.25;100.00;98485.55;1754528;80;28059;-85
2022/07/07 02:14:29;;;;;;;9.05;3.55;;;;;;;15.24;100.00;98481.72;1754876;79;28170;-85
2022/07/07 02:16:56;;;;;;;7.50;4.15;;;;;;;15.24;100.00;98478.59;1755470;79;28632;-86
2022/07/07 02:19:23;;;;;;;7.08;3.87;;;;;;;15.24;100.00;98480.40;1755328;80;27994;-85
2022/07/07 02:21:52;;;;;;;5.30;3.85;;;;;;;15.22;100.00;98478.41;1757257;80;28127;-86
2022/07/07 02:24:18;;;;;;;9.30;3.85;;;;;;;15.16;100.00;98476.30;1755356;79;28104;-84
2022/07/07 02:26:44;;;;;;;8.08;4.15;;;;;;;15.08;100.00;98470.38;1755938;79;28149;-85
2022/07/07 02:29:13;;;;;;;10.40;4.17;;;;;;;15.01;100.00;98466.59;1752450;80;28093;-85
2022/07/07 02:31:40;;;;;;;8.45;5.00;;;;;;;14.96;100.00;98470.95;1757738;80;28106;-89
2022/07/07 02:34:06;;;;;;;8.93;4.53;;;;;;;14.93;100.00;98465.97;1721592;82;28133;-89
2022/07/07 02:36:32;;;;;;;10.90;4.75;;;;;;;14.93;100.00;98469.91;1756864;80;28162;-89
2022/07/07 02:39:20;;;;;;;10.80;4.92;;;;;;;14.94;100.00;98469.44;1757334;80;28039;-89
2022/07/07 02:41:46;;;;;;;7.42;4.70;;;;;;;14.91;100.00;98474.95;1753008;80;28117;-89
2022/07/07 02:44:14;;;;;;;12.70;5.42;;;;;;;14.90;100.00;98475.44;1750353;80;28080;-89
2022/07/07 02:46:40;;;;;;;11.45;5.45;;;;;;;14.94;100.00;98474.70;1755866;80;28181;-90
2022/07/07 02:49:07;;;;;;;12.10;6.17;;;;;;;14.98;100.00;98476.09;1751675;80;28078;-89
2022/07/07 02:51:34;;;;;;;9.98;4.97;;;;;;;15.00;100.00;98475.50;1750151;80;28038;-89
2022/07/07 02:54:00;;;;;;;9.18;5.12;;;;;;;14.95;100.00;98481.62;1755243;80;28585;-89
2022/07/07 02:56:26;;;;;;;9.63;4.47;;;;;;;14.84;100.00;98485.67;1752451;80;28078;-89
2022/07/07 02:58:52;;;;;;;11.65;5.05;;;;;;;14.82;100.00;98491.09;1753234;80;27999;-89
2022/07/07 03:01:18;;;;;;;7.92;4.78;;;;;;;14.89;100.00;98490.09;1757027;80;28126;-91
2022/07/07 03:03:45;;;;;;;11.45;5.42;;;;;;;14.92;100.00;98481.42;1755370;80;28135;-90
2022/07/07 03:06:11;;;;;;;9.35;4.40;;;;;;;14.98;100.00;98490.11;1750912;80;28116;-90
2022/07/07 03:08:37;;;;;;;11.80;5.40;;;;;;;15.06;100.00;98486.31;1753213;80;28158;-87
2022/07/07 03:11:03;;;;;;;12.10;4.75;;;;;;;15.15;100.00;98487.33;1758806;80;43672;-87
2022/07/07 03:13:29;;;;;;;9.00;5.05;;;;;;;15.22;100.00;98484.99;1752654;80;28065;-87
2022/07/07 03:15:55;;;;;;;10.28;4.97;;;;;;;15.24;100.00;98484.35;1758622;80;28179;-86
2022/07/07 03:18:22;;;;;;;10.88;5.45;;;;;;;15.25;100.00;98482.91;1752374;80;28068;-86
2022/07/07 03:20:48;;;;;;;6.92;4.12;;;;;;;15.30;100.00;98488.61;1755558;80;28081;-86
2022/07/07 03:23:14;;;;;;;12.45;4.83;;;;;;;15.33;100.00;98485.69;1755127;80;28073;-86
2022/07/07 03:25:40;;;;;;;8.08;5.67;;;;;;;15.36;100.00;98476.69;1753315;80;28094;-85
2022/07/07 03:28:06;;;;;;;10.10;4.30;;;;;;;15.37;100.00;98481.83;1748127;80;28096;-86
2022/07/07 03:30:32;;;;;;;7.80;4.20;;;;;;;15.40;100.00;98482.86;1752216;80;28022;-85
2022/07/07 03:32:58;;;;;;;7.70;3.55;;;;;;;15.41;100.00;98478.42;1751067;80;28068;-85
2022/07/07 03:35:25;;;;;;;6.47;4.08;;;;;;;15.45;100.00;98475.86;1758807;80;28169;-85
2022/07/07 03:37:53;;;;;;;8.08;3.90;;;;;;;15.45;100.00;98471.91;1735793;80;28057;-86
2022/07/07 03:40:20;;;;;;;7.25;3.80;;;;;;;15.46;100.00;98469.63;1691064;83;28072;-85
2022/07/07 03:42:48;;;;;;;5.33;3.42;;;;;;;15.48;100.00;98467.20;1715789;81;28135;-84
2022/07/07 03:45:14;;;;;;;5.65;3.70;;;;;;;15.48;100.00;98468.53;1715488;81;28115;-85
2022/07/07 03:47:41;;;;;;;6.55;4.20;;;;;;;15.47;100.00;98461.58;1715801;81;27997;-85
2022/07/07 03:50:08;;;;;;;9.05;4.30;;;;;;;15.52;100.00;98466.47;1714268;81;28154;-85
2022/07/07 03:52:35;;;;;;;8.95;4.28;;;;;;;15.66;100.00;98469.17;1714483;81;28146;-84
2022/07/07 03:55:02;;;;;;;5.58;3.90;;;;;;;15.83;100.00;98469.80;1715200;81;28027;-84
2022/07/07 03:57:28;;;;;;;5.45;3.52;;;;;;;16.03;100.00;98468.84;1714840;81;28117;-84
2022/07/07 04:00:01;;;;;;;9.23;4.05;;;;;;;16.21;100.00;98466.30;1713480;81;28084;-85
2022/07/07 04:02:27;;;;;;;6.65;2.98;;;;;;;16.38;100.00;98470.86;1716272;81;28102;-88
2022/07/07 04:04:54;;;;;;;9.05;3.80;;;;;;;16.51;100.00;98471.88;1714571;81;28146;-86
2022/07/07 04:07:21;;;;;;;8.55;3.80;;;;;;;16.66;100.00;98468.66;1714084;82;28126;-86
2022/07/07 04:09:48;;;;;;;5.28;3.50;;;;;;;16.76;100.00;98467.78;1713395;82;28210;-85
2022/07/07 04:12:23;;;;;;;8.10;3.60;;;;;;;16.69;100.00;98470.20;1713419;82;28056;-86
2022/07/07 04:14:52;;;;;;;5.50;3.60;;;;;;;16.63;100.00;98468.13;1713787;82;28115;-86
2022/07/07 04:17:19;;;;;;;4.25;3.17;;;;;;;16.65;100.00;98464.34;1713888;81;28136;-85
2022/07/07 04:19:47;;;;;;;7.80;3.65;;;;;;;16.82;100.00;98457.47;1717574;81;28116;-85
2022/07/07 04:22:14;;;;;;;4.22;2.98;;;;;;;17.01;100.00;98456.08;1713804;81;28096;-86
2022/07/07 04:24:42;;;;;;;5.47;3.10;;;;;;;17.20;100.00;98453.80;1687553;83;28094;-86
2022/07/07 04:27:09;;;;;;;5.70;2.92;;;;;;;17.37;100.00;98454.81;1713814;82;28101;-86
2022/07/07 04:29:35;;;;;;;5.95;3.02;;;;;;;17.52;100.00;98458.59;1718375;81;28105;-85
2022/07/07 04:32:05;;;;;;;4.62;3.50;;;;;;;17.65;100.00;98456.95;1713898;81;28139;-85
2022/07/07 04:34:31;;;;;;;5.05;2.90;;;;;;;17.76;100.00;98456.23;1713737;82;28004;-85
2022/07/07 04:36:58;;;;;;;5.85;2.58;;;;;;;17.82;100.00;98454.30;1713966;81;28106;-85
2022/07/07 04:39:24;;;;;;;4.25;2.90;;;;;;;17.84;100.00;98459.42;1723686;81;28116;-85
2022/07/07 04:41:50;;;;;;;2.95;2.58;;;;;;;17.87;100.00;98453.35;1750403;80;28151;-85
2022/07/07 04:44:16;;;;;;;3.90;2.90;;;;;;;17.87;100.00;98451.20;1750697;80;28108;-85
2022/07/07 04:46:42;;;;;;;4.87;2.83;;;;;;;17.87;100.00;98449.38;1754966;80;28017;-85
2022/07/07 04:49:08;;;;;;;3.02;2.40;;;;;;;17.89;100.00;98452.69;1715555;82;28086;-85
2022/07/07 04:51:37;;;;;;;5.20;2.70;;;;;;;17.94;100.00;98457.06;1753252;80;28100;-85
2022/07/07 04:54:06;;;;;;;5.50;3.00;;;;;;;17.97;100.00;98454.09;1749934;80;28113;-85
2022/07/07 04:56:32;;;;;;;4.28;2.72;;;;;;;17.98;100.00;98454.94;1754451;81;28475;-85
2022/07/07 04:58:58;;;;;;;4.50;2.65;;;;;;;17.98;100.00;98457.09;1754752;80;28072;-85
2022/07/07 05:01:25;;;;;;;3.80;2.70;;;;;;;17.95;100.00;98458.70;1756244;81;43035;-85
2022/07/07 05:03:55;;;;;;;4.35;2.80;;;;;;;17.95;100.00;98461.35;1750146;80;28060;-85
2022/07/07 05:06:19;;;;;;;5.47;3.05;;;;;;;17.96;100.00;98456.89;1755048;80;28069;-85
2022/07/07 05:08:49;;;;;;;5.08;3.10;;;;;;;17.95;100.00;98461.35;1712770;81;28102;-85
2022/07/07 05:11:16;;;;;;;5.40;3.25;;;;;;;17.93;100.00;98451.91;1751089;81;43097;-85
2022/07/07 05:13:51;;;;;;;5.00;3.12;;;;;;;17.86;100.00;98456.98;1718030;81;28071;-86
2022/07/07 05:16:17;;;;;;;4.92;3.25;;;;;;;17.81;100.00;98449.98;1753682;80;28164;-85
2022/07/07 05:18:50;;;;;;;4.55;3.12;;;;;;;17.81;100.00;98457.09;1752849;80;28076;-85
2022/07/07 05:21:16;;;;;;;5.35;3.27;;;;;;;17.81;100.00;98455.77;1743635;81;28102;-85
2022/07/07 05:23:53;;;;;;;5.80;2.90;;;;;;;17.81;100.00;98448.66;1747247;80;28002;-85
2022/07/07 05:26:21;;;;;;;3.42;2.65;;;;;;;17.86;100.00;98455.66;1742171;80;28081;-85
2022/07/07 05:28:53;;;;;;;6.30;3.22;;;;;;;17.94;100.00;98447.80;1713643;82;28099;-85
2022/07/07 05:31:19;;;;;;;4.83;2.65;;;;;;;17.98;100.00;98450.47;1749887;81;28067;-85
2022/07/07 05:33:48;;;;;;;6.22;3.00;;;;;;;18.03;100.00;98450.50;1751081;80;28176;-85
2022/07/07 05:36:21;;;;;;;4.15;2.60;;;;;;;18.09;100.00;98449.89;1751467;80;28047;-85
2022/07/07 05:38:47;;;;;;;4.40;2.75;;;;;;;18.13;100.00;98445.44;1753605;80;27993;-86
2022/07/07 05:41:13;;;;;;;4.67;2.60;;;;;;;18.17;100.00;98448.61;1761003;80;28167;-85
2022/07/07 05:43:42;;;;;;;7.45;3.25;;;;;;;18.21;100.00;98442.03;1721499;81;43089;-86
2022/07/07 05:46:09;;;;;;;4.65;3.08;;;;;;;18.32;100.00;98439.13;1731333;81;28108;-85
2022/07/07 05:48:35;;;;;;;6.12;3.40;;;;;;;18.39;100.00;98442.31;1731840;80;28135;-85
2022/07/07 05:51:01;;;;;;;7.67;3.83;;;;;;;18.38;100.00;98439.31;1733578;81;28068;-85
2022/07/07 05:53:27;;;;;;;8.28;3.47;;;;;;;18.52;100.00;98447.69;1730417;82;28061;-85
2022/07/07 05:56:00;;;;;;;14.38;4.67;;;;;;;18.53;100.00;98435.62;1728968;81;43616;-85
2022/07/07 05:58:26;;;;;;;11.68;4.40;;;;;;;18.60;100.00;98437.19;1729810;82;28094;-85
2022/07/07 06:00:59;;;;;;;7.22;4.25;;;;;;;18.66;100.00;98437.85;1729296;81;28083;-85
2022/07/07 06:03:27;;;;;;;8.08;3.95;;;;;;;18.71;100.00;98440.36;1727182;80;28183;-85
2022/07/07 06:05:53;;;;;;;6.55;3.98;;;;;;;18.72;100.00;98431.43;1698797;83;28101;-84
2022/07/07 06:08:19;;;;;;;11.88;5.35;;;;;;;18.81;100.00;98434.97;1709802;83;28142;-85
2022/07/07 06:10:45;;;;;;;11.75;4.00;;;;;;;18.88;100.00;98433.32;1713617;82;28115;-84
2022/07/07 06:13:15;;;;;;;7.10;4.00;;;;;;;18.93;100.00;98432.87;1711067;82;28076;-85
2022/07/07 06:15:42;;;;;;;10.72;4.33;;;;;;;18.92;100.00;98438.66;1710832;82;28088;-85
2022/07/07 06:18:08;;;;;;;11.05;4.80;;;;;;;18.95;100.00;98438.33;1713018;82;28104;-85
2022/07/07 06:20:36;;;;;;;6.62;3.70;;;;;;;18.96;100.00;98437.34;1710981;82;28161;-85
2022/07/07 06:23:03;;;;;;;8.10;3.70;;;;;;;19.01;100.00;98428.41;1708067;82;28170;-85
2022/07/07 06:25:29;;;;;;;13.32;4.12;;;;;;;19.04;100.00;98433.38;1708200;82;28179;-85
2022/07/07 06:27:55;;;;;;;7.40;3.47;;;;;;;19.13;100.00;98434.26;1709477;82;28172;-84
2022/07/07 06:30:22;;;;;;;6.95;3.20;;;;;;;19.19;100.00;98430.97;1709749;82;28391;-85
2022/07/07 06:32:48;;;;;;;6.37;3.25;;;;;;;19.26;100.00;98430.63;1709832;82;28128;-85
2022/07/07 06:35:26;;;;;;;5.40;3.17;;;;;;;19.30;100.00;98424.52;1712007;82;28090;-84
2022/07/07 06:37:53;;;;;;;8.13;3.27;;;;;;;19.35;100.00;98424.87;1706677;82;27993;-85
2022/07/07 06:40:20;;;;;;;9.80;3.40;;;;;;;19.39;100.00;98430.17;1695770;83;28166;-85
2022/07/07 06:42:46;;;;;;;6.40;3.47;;;;;;;19.40;100.00;98419.41;1702497;82;28076;-84
2022/07/07 06:45:19;;;;;;;6.30;2.90;;;;;;;19.43;100.00;98421.72;1663732;85;28102;-85
2022/07/07 06:47:47;;;;;;;6.70;3.30;;;;;;;19.50;100.00;98412.64;1731257;82;28124;-84
2022/07/07 06:50:13;;;;;;;9.60;3.02;;;;;;;19.50;100.00;98417.46;1728762;81;28100;-84
2022/07/07 06:52:39;;;;;;;5.67;3.20;;;;;;;19.57;100.00;98412.33;1729376;81;28070;-84
2022/07/07 06:55:06;;;;;;;6.97;2.75;;;;;;;19.66;100.00;98414.48;1730822;81;28143;-84
2022/07/07 06:57:32;;;;;;;5.10;3.10;;;;;;;19.73;100.00;98415.49;1693512;82;28096;-84
2022/07/07 07:00:07;;;;;;;7.58;2.90;;;;;;;19.81;100.00;98416.31;1692638;84;28111;-84
2022/07/07 07:02:33;;;;;;;6.55;3.20;;;;;;;19.97;100.00;98414.15;1727032;81;28081;-84
2022/07/07 07:05:00;;;;;;;6.00;3.25;;;;;;;20.11;100.00;98416.16;1693013;84;28155;-84
2022/07/07 07:07:28;;;;;;;6.10;2.27;;;;;;;20.14;100.00;98410.98;1733658;81;28153;-84
2022/07/07 07:09:55;;;;;;;4.45;2.10;;;;;;;20.14;100.00;98410.48;1731465;81;28026;-84
2022/07/07 07:12:23;;;;;;;7.97;1.82;;;;;;;20.18;100.00;98410.51;1728754;81;28196;-84
2022/07/07 07:14:49;;;;;;;2.17;1.82;;;;;;;20.30;100.00;98409.63;1730235;82;28039;-84
2022/07/07 07:17:21;;;;;;;4.15;1.90;;;;;;;20.42;100.00;98400.34;1731155;81;28156;-85
2022/07/07 07:19:47;;;;;;;4.20;1.77;;;;;;;20.50;100.00;98399.50;1732063;81;28077;-84
2022/07/07 07:22:17;;;;;;;3.80;1.70;;;;;;;20.49;100.00;98401.83;1731616;81;28175;-84
2022/07/07 07:24:43;;;;;;;3.37;1.57;;;;;;;20.45;100.00;98393.37;1731129;82;28375;-84
2022/07/07 07:27:10;;;;;;;3.42;1.42;;;;;;;20.46;100.00;98394.51;1729608;81;28047;-84
2022/07/07 07:29:39;;;;;;;2.98;1.50;;;;;;;20.59;100.00;98395.81;1690474;83;28104;-84
2022/07/07 07:32:06;;;;;;;2.10;1.52;;;;;;;20.70;100.00;98394.11;1693466;84;28084;-84
2022/07/07 07:34:32;;;;;;;1.82;1.52;;;;;;;20.83;100.00;98395.23;1734030;81;28129;-84
2022/07/07 07:37:00;;;;;;;2.72;1.70;;;;;;;20.98;100.00;98403.31;1735269;81;28080;-84
2022/07/07 07:39:28;;;;;;;2.98;1.67;;;;;;;21.04;100.00;98387.15;1718040;80;28070;-84
2022/07/07 07:41:58;;;;;;;1.80;1.27;;;;;;;21.04;100.00;98387.15;1713161;82;28145;-84
2022/07/07 07:47:12;;;;;;;3.65;1.77;;;;;;;20.97;100.00;98383.02;1731649;81;28096;-84
2022/07/07 07:49:38;;;;;;;3.77;1.57;;;;;;;20.99;100.00;98382.85;1750379;80;28096;-84
2022/07/07 07:52:05;;;;;;;5.67;1.70;;;;;;;21.11;100.00;98379.60;1756904;80;28155;-84
2022/07/07 07:54:33;;;;;;;3.70;1.72;;;;;;;21.16;100.00;98378.64;1750074;80;28077;-84
2022/07/07 07:57:03;;;;;;;3.15;1.62;;;;;;;21.11;100.00;98379.60;1754317;80;28057;-84
2022/07/07 07:59:32;;;;;;;4.58;1.70;;;;;;;21.13;100.00;98377.61;1714046;82;28095;-84
2022/07/07 08:02:00;;;;;;;2.67;1.55;;;;;;;21.32;100.00;98380.37;1713074;82;28134;-84
2022/07/07 08:04:27;;;;;;;4.87;1.65;;;;;;;21.44;100.00;98378.13;1716198;82;28149;-84
2022/07/07 08:06:56;;;;;;;2.50;1.67;;;;;;;21.48;100.00;98371.44;1730310;82;28078;-84
2022/07/07 08:09:22;;;;;;;2.37;1.50;;;;;;;21.56;100.00;98379.35;1693841;83;28183;-84
2022/07/07 08:11:48;;;;;;;5.17;1.70;;;;;;;21.62;100.00;98378.64;1735709;81;28070;-84
2022/07/07 08:14:15;;;;;;;4.40;1.72;;;;;;;21.72;100.00;98375.23;1748730;80;28178;-84
2022/07/07 08:16:40;;;;;;;;;;;;;;;21.75;100.00;98372.23;1717609;82;28490;-84
2022/07/07 08:19:06;;;;;;;;;;;;;;;21.81;100.00;98374.67;1699478;83;20916;-84
2022/07/07 08:21:32;;;;;;;;;;;;;;;21.71;100.00;98372.27;1702606;83;20586;-84
2022/07/07 08:23:58;;;;;;;;;;;;;;;21.67;100.00;98370.44;1720526;82;20726;-84
2022/07/07 08:26:27;;;;;;;2.55;1.52;;;;;;;21.76;100.00;98373.05;1689523;82;20241;-84
2022/07/07 08:28:53;;;;;;;2.60;1.40;;;;;;;21.69;100.00;98371.61;1722527;81;28117;-84
2022/07/07 08:31:21;;;;;;;1.67;1.30;;;;;;;21.68;100.00;98368.11;1718632;81;28163;-84
2022/07/07 08:33:47;;;;;;;1.70;1.60;;;;;;;21.89;100.00;98362.09;1727840;81;28112;-84
2022/07/07 08:36:15;;;;;;;5.42;1.57;;;;;;;21.95;100.00;98363.25;1730145;81;28129;-84
2022/07/07 08:38:42;;;;;;;3.72;1.55;;;;;;;21.99;100.00;98358.70;1729486;81;28035;-84
2022/07/07 08:41:08;;;;;;;2.08;1.47;;;;;;;22.25;100.00;98360.13;1755296;80;28068;-84
2022/07/07 08:43:34;;;;;;;3.25;1.60;;;;;;;22.39;100.00;98357.47;1752992;80;28080;-84
2022/07/07 08:46:02;;;;;;;1.72;1.62;;;;;;;22.31;100.00;98357.54;1754582;80;28468;-84
2022/07/07 08:48:28;;;;;;;2.30;1.37;;;;;;;22.26;100.00;98353.77;1754178;80;28123;-84
2022/07/07 08:50:55;;;;;;;3.75;1.30;;;;;;;22.42;100.00;98351.75;1760913;80;28083;-84
2022/07/07 08:53:23;;;;;;;2.65;1.70;;;;;;;22.55;100.00;98352.45;1754462;80;28007;-84
2022/07/07 08:55:50;;;;;;;4.10;1.40;;;;;;;22.70;100.00;98351.92;1755951;80;28103;-86
2022/07/07 08:58:18;;;;;;;3.17;1.52;;;;;;;22.91;100.00;98351.21;1751552;80;28174;-84
2022/07/07 09:00:44;;;;;;;5.25;1.40;;;;;;;23.05;100.00;98352.18;1753795;80;28079;-84
2022/07/07 09:03:11;;;;;;;3.12;1.27;;;;;;;23.16;100.00;98357.03;1751276;80;28257;-83
2022/07/07 09:05:44;;;;;;;1.42;1.25;;;;;;;23.17;100.00;98348.01;1685255;79;158130;-84
2022/07/07 09:08:22;;;;;;;1.67;1.30;;;;;;;23.09;100.00;98346.77;1691778;83;28572;-84
2022/07/07 09:10:48;;;;;;;1.52;1.27;;;;;;;22.87;100.00;98345.40;1704064;82;28098;-84
2022/07/07 09:13:28;;;;;;;2.15;1.40;;;;;;;22.82;100.00;98349.14;1671461;84;28115;-84
2022/07/07 09:15:58;;;;;;;2.00;1.45;;;;;;;22.82;100.00;98347.80;1661263;84;28136;-84
2022/07/07 09:18:36;;;;;;;1.42;1.12;;;;;;;22.91;100.00;98351.21;1653462;84;28150;-84
2022/07/07 09:21:05;;;;;;;2.22;1.10;;;;;;;22.99;100.00;98345.75;1708890;81;28115;-84
2022/07/07 09:23:33;;;;;;;1.72;1.32;;;;;;;23.02;100.00;98346.69;1723836;81;28022;-84
2022/07/07 09:26:05;;;;;;;1.70;1.60;;;;;;;23.14;100.00;98353.70;1713825;81;28089;-84
2022/07/07 09:28:31;;;;;;;5.30;1.85;;;;;;;23.20;100.00;98351.62;1717062;81;28171;-84
2022/07/07 09:30:58;;;;;;;3.67;1.40;;;;;;;23.38;100.00;98346.69;1716126;81;28063;-84
2022/07/07 09:33:25;;;;;;;2.87;1.32;;;;;;;23.41;100.00;98341.45;1717570;81;28106;-84
2022/07/07 09:38:55;;;;;;;1.90;1.05;;;;;;;23.56;100.00;98336.42;1707134;81;28022;-83
2022/07/07 09:41:22;;;;;;;2.02;1.15;;;;;;;23.57;100.00;98336.72;1717574;81;28064;-87
2022/07/07 09:43:57;;;;;;;1.98;1.20;;;;;;;23.68;99.06;98345.55;1722093;81;28095;-84
2022/07/07 09:46:29;;;;;;;1.35;1.00;;;;;;;23.79;98.36;98337.52;1718062;81;27996;-84
2022/07/07 09:48:58;;;;;;;2.55;1.02;;;;;;;23.91;98.03;98331.97;1717212;81;28186;-84
2022/07/07 09:51:32;;;;;;;3.58;1.00;;;;;;;23.94;97.63;98335.61;1714033;81;28176;-84
2022/07/07 09:54:15;;;;;;;3.02;1.20;;;;;;;24.09;97.56;98326.14;1714620;81;28067;-83
2022/07/07 09:56:47;;;;;;;2.70;1.25;;;;;;;24.28;97.54;98321.45;1713423;81;28100;-84
2022/07/07 09:59:22;;;;;;;3.55;1.42;;;;;;;24.39;97.09;98325.42;1712605;81;28189;-83
2022/07/07 10:01:47;;;;;;;1.85;1.50;;;;;;;24.51;96.63;98322.51;1716161;81;28136;-83
2022/07/07 10:04:19;;;;;;;3.05;1.52;;;;;;;24.64;95.88;98325.26;1713428;81;28068;-83
2022/07/07 10:06:46;;;;;;;1.00;0.98;;;;;;;24.70;95.62;98324.47;1715096;82;28116;-83
2022/07/07 10:09:18;;;;;;;3.45;1.40;;;;;;;24.69;94.95;98312.61;1710837;82;28135;-83
2022/07/07 10:11:48;;;;;;;1.47;1.10;;;;;;;24.77;94.31;98314.59;1708631;82;28074;-83
2022/07/07 10:14:16;;;;;;;1.55;1.10;;;;;;;24.70;92.82;98312.94;1711130;82;28155;-83
2022/07/07 10:16:45;;;;;;;2.90;1.30;;;;;;;24.70;91.88;98319.63;1700727;82;28075;-83
2022/07/07 10:19:16;;;;;;;2.47;1.20;;;;;;;24.68;91.17;98313.12;1714702;82;28155;-83
2022/07/07 10:21:48;;;;;;;3.02;1.60;;;;;;;24.71;90.82;98313.25;1709253;82;28113;-84
2022/07/07 10:24:17;;;;;;;2.55;1.80;;;;;;;24.68;90.33;98316.30;1706358;82;28120;-84
2022/07/07 10:26:55;;;;;;;3.27;1.80;;;;;;;24.64;89.56;98313.73;1710641;82;28057;-83
2022/07/07 10:29:45;;;;;;;3.15;1.27;;;;;;;24.59;88.87;98323.69;1711574;82;28021;-84
2022/07/07 10:32:17;;;;;;;3.20;2.17;;;;;;;24.53;88.31;98326.66;1716347;82;28159;-83
2022/07/07 10:34:55;;;;;;;1.90;1.55;;;;;;;24.40;87.35;98318.54;1689457;82;28074;-83
2022/07/07 10:37:23;;;;;;;2.15;1.55;;;;;;;24.28;86.64;98319.28;1709452;82;28018;-84
2022/07/07 10:39:54;;;;;;;1.85;1.37;;;;;;;24.07;85.78;98318.81;1712282;82;28153;-83
2022/07/07 10:42:57;;;;;;;1.72;1.35;;;;;;;23.98;85.40;98319.48;1709902;82;28048;-84
2022/07/07 10:45:25;;;;;;;1.90;1.40;;;;;;;23.88;84.99;98325.69;1713393;82;28011;-84
2022/07/07 10:47:52;;;;;;;3.47;1.10;;;;;;;23.73;84.47;98320.41;1704428;82;28091;-85
2022/07/07 10:50:30;;;;;;;1.65;1.55;;;;;;;23.67;84.48;98317.20;1705121;82;28069;-85
2022/07/07 10:52:57;;;;;;;2.37;1.90;;;;;;;23.62;84.69;98316.92;1706549;82;28064;-85
2022/07/07 10:56:02;;;;;;;5.53;1.55;;;;;;;23.52;84.58;98313.76;1716920;82;28215;-85
2022/07/07 10:58:57;;;;;;;2.52;1.42;;;;;;;23.49;84.43;98317.34;1704477;82;28072;-85
2022/07/07 11:01:27;;;;;;;1.70;1.27;;;;;;;23.41;84.53;98316.91;1709367;82;28080;-85
2022/07/07 11:03:54;;;;;;;3.17;1.55;;;;;;;23.43;85.01;98318.89;1714349;82;28006;-85
2022/07/07 11:06:21;;;;;;;2.15;1.30;;;;;;;23.46;85.44;98315.86;1711804;82;28160;-85
2022/07/07 11:08:57;;;;;;;2.10;1.35;;;;;;;23.44;85.77;98317.88;1687113;83;28150;-85
2022/07/07 11:11:23;;;;;;;1.57;1.35;;;;;;;23.33;85.66;98313.88;1684885;83;28156;-85
2022/07/07 11:14:04;;;;;;;2.12;1.65;;;;;;;23.23;86.06;98313.38;1672534;84;28000;-85
2022/07/07 11:16:34;;;;;;;3.40;1.40;;;;;;;23.11;86.17;98307.38;1656874;85;28002;-85
2022/07/07 11:19:07;;;;;;;2.22;1.30;;;;;;;23.12;86.38;98303.19;1679744;83;28085;-85
2022/07/07 11:21:43;;;;;;;2.45;1.40;;;;;;;23.09;86.46;98305.39;1693939;82;28093;-85
2022/07/07 11:24:25;;;;;;;2.17;1.37;;;;;;;22.99;86.50;98304.38;1689337;82;28036;-85
2022/07/07 11:27:01;;;;;;;;;;;;;;;22.88;86.44;98297.69;1698003;83;28115;-85
2022/07/07 11:29:40;;;;;;;3.33;1.30;;;;;;;22.83;86.42;98300.09;1688209;83;25127;-85
2022/07/07 11:32:09;;;;;;;2.80;1.17;;;;;;;22.84;86.40;98293.75;1670430;84;28112;-85
2022/07/07 11:34:51;;;;;;;1.70;1.25;;;;;;;22.89;86.51;98292.67;1689019;83;28083;-85
2022/07/07 11:37:21;;;;;;;4.83;1.30;;;;;;;22.82;86.73;98283.76;1667376;84;28138;-85
2022/07/07 11:39:47;;;;;;;1.87;1.35;;;;;;;22.75;86.64;98279.34;1687120;83;28111;-85